sensor_id;sensor_type;location;lat;lon;timestamp;temperature;humidity
28959;DHT22;16066;0.000;0.000;2022-07-11T00:02:22;22.70;52.50
28959;DHT22;16066;0.000;0.000;2022-07-11T00:04:48;22.70;52.40
28959;DHT22;16066;0.000;0.000;2022-07-11T00:07:14;22.70;52.50
28959;DHT22;16066;0.000;0.000;2022-07-11T00:09:40;22.70;52.50
28959;DHT22;16066;0.000;0.000;2022-07-11T00:12:06;22.70;52.50
28959;DHT22;16066;0.000;0.000;2022-07-11T00:14:33;22.70;52.50
28959;DHT22;16066;0.000;0.000;2022-07-11T00:16:58;22.70;52.50
28959;DHT22;16066;0.000;0.000;2022-07-11T00:19:24;22.70;52.60
28959;DHT22;16066;0.000;0.000;2022-07-11T00:21:50;22.70;52.60
28959;DHT22;16066;0.000;0.000;2022-07-11T00:24:17;22.70;52.70
28959;DHT22;16066;0.000;0.000;2022-07-11T00:26:48;22.70;52.80
28959;DHT22;16066;0.000;0.000;2022-07-11T00:29:14;22.60;52.70
28959;DHT22;16066;0.000;0.000;2022-07-11T00:31:40;22.60;52.70
28959;DHT22;16066;0.000;0.000;2022-07-11T00:34:05;22.60;52.80
28959;DHT22;16066;0.000;0.000;2022-07-11T00:36:31;22.60;52.90
28959;DHT22;16066;0.000;0.000;2022-07-11T00:38:57;22.60;52.80
28959;DHT22;16066;0.000;0.000;2022-07-11T00:41:23;22.60;52.80
28959;DHT22;16066;0.000;0.000;2022-07-11T00:43:56;22.60;52.80
28959;DHT22;16066;0.000;0.000;2022-07-11T00:46:23;22.50;52.90
28959;DHT22;16066;0.000;0.000;2022-07-11T00:48:49;22.50;52.80
28959;DHT22;16066;0.000;0.000;2022-07-11T00:51:17;22.50;53.00
28959;DHT22;16066;0.000;0.000;2022-07-11T00:53:43;22.50;52.90
28959;DHT22;16066;0.000;0.000;2022-07-11T00:56:09;22.50;52.90
28959;DHT22;16066;0.000;0.000;2022-07-11T00:58:35;22.50;53.00
28959;DHT22;16066;0.000;0.000;2022-07-11T01:01:02;22.50;53.00
28959;DHT22;16066;0.000;0.000;2022-07-11T01:03:27;22.40;53.00
28959;DHT22;16066;0.000;0.000;2022-07-11T01:05:53;22.40;52.90
28959;DHT22;16066;0.000;0.000;2022-07-11T01:08:19;22.50;53.10
28959;DHT22;16066;0.000;0.000;2022-07-11T01:10:44;22.40;52.90
28959;DHT22;16066;0.000;0.000;2022-07-11T01:13:10;22.50;53.00
28959;DHT22;16066;0.000;0.000;2022-07-11T01:15:36;22.50;52.90
28959;DHT22;16066;0.000;0.000;2022-07-11T01:18:02;22.40;52.90
28959;DHT22;16066;0.000;0.000;2022-07-11T01:20:28;22.50;53.00
28959;DHT22;16066;0.000;0.000;2022-07-11T01:25:23;22.50;53.20
28959;DHT22;16066;0.000;0.000;2022-07-11T01:28:04;22.50;53.00
28959;DHT22;16066;0.000;0.000;2022-07-11T01:30:30;22.50;53.20
28959;DHT22;16066;0.000;0.000;2022-07-11T01:32:57;22.50;53.20
28959;DHT22;16066;0.000;0.000;2022-07-11T01:35:23;22.50;53.30
28959;DHT22;16066;0.000;0.000;2022-07-11T01:37:49;22.40;53.40
28959;DHT22;16066;0.000;0.000;2022-07-11T01:40:15;22.40;53.30
28959;DHT22;16066;0.000;0.000;2022-07-11T01:42:41;22.40;53.40
28959;DHT22;16066;0.000;0.000;2022-07-11T01:45:08;22.40;53.40
28959;DHT22;16066;0.000;0.000;2022-07-11T01:47:34;22.30;53.30
28959;DHT22;16066;0.000;0.000;2022-07-11T01:50:00;22.30;53.20
28959;DHT22;16066;0.000;0.000;2022-07-11T01:52:25;22.30;53.40
28959;DHT22;16066;0.000;0.000;2022-07-11T01:54:52;22.30;53.50
28959;DHT22;16066;0.000;0.000;2022-07-11T01:57:17;22.30;53.40
28959;DHT22;16066;0.000;0.000;2022-07-11T01:59:43;22.30;53.50
28959;DHT22;16066;0.000;0.000;2022-07-11T02:02:08;22.30;53.40
28959;DHT22;16066;0.000;0.000;2022-07-11T02:04:34;22.30;53.50
28959;DHT22;16066;0.000;0.000;2022-07-11T02:07:00;22.30;53.30
28959;DHT22;16066;0.000;0.000;2022-07-11T02:09:25;22.30;53.40
28959;DHT22;16066;0.000;0.000;2022-07-11T02:11:51;22.30;53.20
28959;DHT22;16066;0.000;0.000;2022-07-11T02:14:17;22.30;53.30
28959;DHT22;16066;0.000;0.000;2022-07-11T02:16:42;22.30;53.50
28959;DHT22;16066;0.000;0.000;2022-07-11T02:19:08;22.30;53.40
28959;DHT22;16066;0.000;0.000;2022-07-11T02:21:36;22.30;53.50
28959;DHT22;16066;0.000;0.000;2022-07-11T02:24:02;22.30;53.60
28959;DHT22;16066;0.000;0.000;2022-07-11T02:26:27;22.30;53.60
28959;DHT22;16066;0.000;0.000;2022-07-11T02:28:53;22.30;53.60
28959;DHT22;16066;0.000;0.000;2022-07-11T02:31:18;22.20;53.50
28959;DHT22;16066;0.000;0.000;2022-07-11T02:33:44;22.20;53.50
28959;DHT22;16066;0.000;0.000;2022-07-11T02:36:09;22.20;53.60
28959;DHT22;16066;0.000;0.000;2022-07-11T02:38:35;22.20;53.70
28959;DHT22;16066;0.000;0.000;2022-07-11T02:41:01;22.20;53.80
28959;DHT22;16066;0.000;0.000;2022-07-11T02:43:27;22.20;53.70
28959;DHT22;16066;0.000;0.000;2022-07-11T02:45:54;22.20;53.80
28959;DHT22;16066;0.000;0.000;2022-07-11T02:48:19;22.10;53.70
28959;DHT22;16066;0.000;0.000;2022-07-11T02:50:45;22.10;53.90
28959;DHT22;16066;0.000;0.000;2022-07-11T02:53:11;22.10;53.80
28959;DHT22;16066;0.000;0.000;2022-07-11T02:55:36;22.10;53.90
28959;DHT22;16066;0.000;0.000;2022-07-11T02:58:02;22.10;53.90
28959;DHT22;16066;0.000;0.000;2022-07-11T03:00:28;22.10;54.30
28959;DHT22;16066;0.000;0.000;2022-07-11T03:02:53;22.00;54.00
28959;DHT22;16066;0.000;0.000;2022-07-11T03:05:19;22.00;54.20
28959;DHT22;16066;0.000;0.000;2022-07-11T03:07:44;22.00;54.10
28959;DHT22;16066;0.000;0.000;2022-07-11T03:10:10;22.00;54.30
28959;DHT22;16066;0.000;0.000;2022-07-11T03:12:36;22.00;54.80
28959;DHT22;16066;0.000;0.000;2022-07-11T03:15:02;22.00;54.40
28959;DHT22;16066;0.000;0.000;2022-07-11T03:17:28;21.90;54.50
28959;DHT22;16066;0.000;0.000;2022-07-11T03:19:54;21.90;54.40
28959;DHT22;16066;0.000;0.000;2022-07-11T03:22:20;21.90;54.60
28959;DHT22;16066;0.000;0.000;2022-07-11T03:24:46;21.90;54.60
28959;DHT22;16066;0.000;0.000;2022-07-11T03:27:12;21.90;54.60
28959;DHT22;16066;0.000;0.000;2022-07-11T03:29:37;21.90;54.60
28959;DHT22;16066;0.000;0.000;2022-07-11T03:32:03;21.90;54.60
28959;DHT22;16066;0.000;0.000;2022-07-11T03:34:29;21.90;54.60
28959;DHT22;16066;0.000;0.000;2022-07-11T03:36:54;21.90;54.80
28959;DHT22;16066;0.000;0.000;2022-07-11T03:39:20;21.90;54.70
28959;DHT22;16066;0.000;0.000;2022-07-11T03:41:48;21.90;54.70
28959;DHT22;16066;0.000;0.000;2022-07-11T03:44:14;21.90;54.80
28959;DHT22;16066;0.000;0.000;2022-07-11T03:46:40;21.80;54.60
28959;DHT22;16066;0.000;0.000;2022-07-11T03:49:05;21.80;54.70
28959;DHT22;16066;0.000;0.000;2022-07-11T03:51:31;21.80;55.00
28959;DHT22;16066;0.000;0.000;2022-07-11T03:53:56;21.80;54.80
28959;DHT22;16066;0.000;0.000;2022-07-11T03:56:22;21.80;54.80
28959;DHT22;16066;0.000;0.000;2022-07-11T03:58:51;21.80;54.50
28959;DHT22;16066;0.000;0.000;2022-07-11T04:01:16;21.80;54.70
28959;DHT22;16066;0.000;0.000;2022-07-11T04:03:42;21.80;54.60
28959;DHT22;16066;0.000;0.000;2022-07-11T04:06:08;21.90;54.90
28959;DHT22;16066;0.000;0.000;2022-07-11T04:08:33;21.80;54.70
28959;DHT22;16066;0.000;0.000;2022-07-11T04:10:59;21.90;54.80
28959;DHT22;16066;0.000;0.000;2022-07-11T04:13:25;21.80;54.50
28959;DHT22;16066;0.000;0.000;2022-07-11T04:15:50;21.80;54.60
28959;DHT22;16066;0.000;0.000;2022-07-11T04:18:16;21.90;54.50
28959;DHT22;16066;0.000;0.000;2022-07-11T04:20:42;21.90;54.30
28959;DHT22;16066;0.000;0.000;2022-07-11T04:23:08;21.90;54.70
28959;DHT22;16066;0.000;0.000;2022-07-11T04:25:34;21.90;54.50
28959;DHT22;16066;0.000;0.000;2022-07-11T04:28:00;21.90;54.50
28959;DHT22;16066;0.000;0.000;2022-07-11T04:30:26;22.00;54.70
28959;DHT22;16066;0.000;0.000;2022-07-11T04:32:52;22.00;54.60
28959;DHT22;16066;0.000;0.000;2022-07-11T04:35:18;22.00;54.60
28959;DHT22;16066;0.000;0.000;2022-07-11T04:37:43;22.00;54.30
28959;DHT22;16066;0.000;0.000;2022-07-11T04:40:10;22.00;54.60
28959;DHT22;16066;0.000;0.000;2022-07-11T04:42:35;22.00;54.80
28959;DHT22;16066;0.000;0.000;2022-07-11T04:45:01;22.00;54.60
28959;DHT22;16066;0.000;0.000;2022-07-11T04:47:27;21.90;55.20
28959;DHT22;16066;0.000;0.000;2022-07-11T04:49:52;22.00;54.80
28959;DHT22;16066;0.000;0.000;2022-07-11T04:52:18;22.00;54.80
28959;DHT22;16066;0.000;0.000;2022-07-11T04:54:43;21.90;54.90
28959;DHT22;16066;0.000;0.000;2022-07-11T04:57:09;21.90;54.70
28959;DHT22;16066;0.000;0.000;2022-07-11T04:59:35;21.90;54.60
28959;DHT22;16066;0.000;0.000;2022-07-11T05:02:00;21.90;54.90
28959;DHT22;16066;0.000;0.000;2022-07-11T05:04:26;21.90;54.80
28959;DHT22;16066;0.000;0.000;2022-07-11T05:06:51;21.90;54.70
28959;DHT22;16066;0.000;0.000;2022-07-11T05:09:17;21.90;54.90
28959;DHT22;16066;0.000;0.000;2022-07-11T05:11:42;21.90;54.70
28959;DHT22;16066;0.000;0.000;2022-07-11T05:14:08;21.90;54.70
28959;DHT22;16066;0.000;0.000;2022-07-11T05:16:34;21.90;54.90
28959;DHT22;16066;0.000;0.000;2022-07-11T05:18:59;21.90;54.90
28959;DHT22;16066;0.000;0.000;2022-07-11T05:21:25;21.90;55.10
28959;DHT22;16066;0.000;0.000;2022-07-11T05:23:51;21.90;55.20
28959;DHT22;16066;0.000;0.000;2022-07-11T05:26:16;21.90;55.20
28959;DHT22;16066;0.000;0.000;2022-07-11T05:28:42;21.90;55.30
28959;DHT22;16066;0.000;0.000;2022-07-11T05:31:08;21.90;55.30
28959;DHT22;16066;0.000;0.000;2022-07-11T05:33:34;21.90;55.20
28959;DHT22;16066;0.000;0.000;2022-07-11T05:36:00;21.90;55.50
28959;DHT22;16066;0.000;0.000;2022-07-11T05:38:26;21.90;55.60
28959;DHT22;16066;0.000;0.000;2022-07-11T05:40:52;22.00;55.60
28959;DHT22;16066;0.000;0.000;2022-07-11T05:43:17;22.00;55.40
28959;DHT22;16066;0.000;0.000;2022-07-11T05:45:43;22.00;55.40
28959;DHT22;16066;0.000;0.000;2022-07-11T05:48:09;22.00;55.40
28959;DHT22;16066;0.000;0.000;2022-07-11T05:50:35;21.90;55.20
28959;DHT22;16066;0.000;0.000;2022-07-11T05:53:01;21.90;55.20
28959;DHT22;16066;0.000;0.000;2022-07-11T05:55:28;21.90;55.20
28959;DHT22;16066;0.000;0.000;2022-07-11T05:57:53;21.90;55.30
28959;DHT22;16066;0.000;0.000;2022-07-11T06:00:19;21.90;55.30
28959;DHT22;16066;0.000;0.000;2022-07-11T06:02:46;22.00;55.20
28959;DHT22;16066;0.000;0.000;2022-07-11T06:05:12;22.00;55.10
28959;DHT22;16066;0.000;0.000;2022-07-11T06:07:38;22.00;55.00
28959;DHT22;16066;0.000;0.000;2022-07-11T06:10:22;22.00;55.00
28959;DHT22;16066;0.000;0.000;2022-07-11T06:12:48;22.00;54.80
28959;DHT22;16066;0.000;0.000;2022-07-11T06:15:14;22.10;54.70
28959;DHT22;16066;0.000;0.000;2022-07-11T06:17:39;22.10;54.90
28959;DHT22;16066;0.000;0.000;2022-07-11T06:20:05;22.10;55.10
28959;DHT22;16066;0.000;0.000;2022-07-11T06:22:31;22.10;54.90
28959;DHT22;16066;0.000;0.000;2022-07-11T06:24:57;22.10;54.80
28959;DHT22;16066;0.000;0.000;2022-07-11T06:27:23;22.20;54.70
28959;DHT22;16066;0.000;0.000;2022-07-11T06:29:48;22.20;54.60
28959;DHT22;16066;0.000;0.000;2022-07-11T06:32:14;22.20;54.50
28959;DHT22;16066;0.000;0.000;2022-07-11T06:34:39;22.10;54.50
28959;DHT22;16066;0.000;0.000;2022-07-11T06:37:05;22.10;54.70
28959;DHT22;16066;0.000;0.000;2022-07-11T06:39:30;22.10;54.80
28959;DHT22;16066;0.000;0.000;2022-07-11T06:41:56;22.20;54.70
28959;DHT22;16066;0.000;0.000;2022-07-11T06:44:21;22.20;54.60
28959;DHT22;16066;0.000;0.000;2022-07-11T06:46:47;22.20;54.80
28959;DHT22;16066;0.000;0.000;2022-07-11T06:49:13;22.20;54.80
28959;DHT22;16066;0.000;0.000;2022-07-11T06:51:39;22.20;54.60
28959;DHT22;16066;0.000;0.000;2022-07-11T06:54:05;22.20;54.50
28959;DHT22;16066;0.000;0.000;2022-07-11T06:56:31;22.20;54.50
28959;DHT22;16066;0.000;0.000;2022-07-11T06:58:56;22.30;54.70
28959;DHT22;16066;0.000;0.000;2022-07-11T07:01:22;22.20;54.50
28959;DHT22;16066;0.000;0.000;2022-07-11T07:03:47;22.30;54.60
28959;DHT22;16066;0.000;0.000;2022-07-11T07:06:13;22.30;54.50
28959;DHT22;16066;0.000;0.000;2022-07-11T07:08:38;22.20;54.50
28959;DHT22;16066;0.000;0.000;2022-07-11T07:11:04;22.20;54.40
28959;DHT22;16066;0.000;0.000;2022-07-11T07:13:32;22.20;54.30
28959;DHT22;16066;0.000;0.000;2022-07-11T07:15:58;22.20;54.40
28959;DHT22;16066;0.000;0.000;2022-07-11T07:18:24;22.30;54.40
28959;DHT22;16066;0.000;0.000;2022-07-11T07:20:51;22.30;54.30
28959;DHT22;16066;0.000;0.000;2022-07-11T07:23:17;22.30;54.40
28959;DHT22;16066;0.000;0.000;2022-07-11T07:25:43;22.30;54.30
28959;DHT22;16066;0.000;0.000;2022-07-11T07:28:09;22.30;54.30
28959;DHT22;16066;0.000;0.000;2022-07-11T07:30:34;22.30;54.10
28959;DHT22;16066;0.000;0.000;2022-07-11T07:33:00;22.30;54.10
28959;DHT22;16066;0.000;0.000;2022-07-11T07:35:27;22.40;54.20
28959;DHT22;16066;0.000;0.000;2022-07-11T07:37:52;22.30;54.00
28959;DHT22;16066;0.000;0.000;2022-07-11T07:40:18;22.40;54.00
28959;DHT22;16066;0.000;0.000;2022-07-11T07:42:43;22.40;53.90
28959;DHT22;16066;0.000;0.000;2022-07-11T07:45:09;22.40;53.80
28959;DHT22;16066;0.000;0.000;2022-07-11T07:47:35;22.50;53.80
28959;DHT22;16066;0.000;0.000;2022-07-11T07:50:02;22.50;53.70
28959;DHT22;16066;0.000;0.000;2022-07-11T07:52:27;22.50;53.60
28959;DHT22;16066;0.000;0.000;2022-07-11T07:54:53;22.50;53.70
28959;DHT22;16066;0.000;0.000;2022-07-11T07:57:18;22.50;53.60
28959;DHT22;16066;0.000;0.000;2022-07-11T07:59:44;22.50;53.60
28959;DHT22;16066;0.000;0.000;2022-07-11T08:02:10;22.50;53.50
28959;DHT22;16066;0.000;0.000;2022-07-11T08:04:35;22.50;53.50
28959;DHT22;16066;0.000;0.000;2022-07-11T08:07:02;22.50;53.50
28959;DHT22;16066;0.000;0.000;2022-07-11T08:09:27;22.50;53.40
28959;DHT22;16066;0.000;0.000;2022-07-11T08:11:54;22.50;53.50
28959;DHT22;16066;0.000;0.000;2022-07-11T08:14:20;22.50;53.50
28959;DHT22;16066;0.000;0.000;2022-07-11T08:16:46;22.50;53.40
28959;DHT22;16066;0.000;0.000;2022-07-11T08:19:13;22.50;54.10
28959;DHT22;16066;0.000;0.000;2022-07-11T08:21:39;22.50;53.90
28959;DHT22;16066;0.000;0.000;2022-07-11T08:24:05;22.50;54.10
28959;DHT22;16066;0.000;0.000;2022-07-11T08:26:31;22.50;53.90
28959;DHT22;16066;0.000;0.000;2022-07-11T08:28:57;22.50;53.80
28959;DHT22;16066;0.000;0.000;2022-07-11T08:31:24;22.50;53.70
28959;DHT22;16066;0.000;0.000;2022-07-11T08:33:50;22.50;53.90
28959;DHT22;16066;0.000;0.000;2022-07-11T08:36:17;22.50;54.20
28959;DHT22;16066;0.000;0.000;2022-07-11T08:38:43;22.50;54.10
28959;DHT22;16066;0.000;0.000;2022-07-11T08:41:13;22.60;54.70
28959;DHT22;16066;0.000;0.000;2022-07-11T08:43:40;22.60;54.00
28959;DHT22;16066;0.000;0.000;2022-07-11T08:46:10;22.60;53.80
28959;DHT22;16066;0.000;0.000;2022-07-11T08:48:38;22.60;53.80
28959;DHT22;16066;0.000;0.000;2022-07-11T08:51:05;22.60;53.70
28959;DHT22;16066;0.000;0.000;2022-07-11T08:53:32;22.60;53.90
28959;DHT22;16066;0.000;0.000;2022-07-11T08:55:59;22.60;53.70
28959;DHT22;16066;0.000;0.000;2022-07-11T08:58:25;22.60;53.70
28959;DHT22;16066;0.000;0.000;2022-07-11T09:00:51;22.60;53.60
28959;DHT22;16066;0.000;0.000;2022-07-11T09:03:18;22.60;53.60
28959;DHT22;16066;0.000;0.000;2022-07-11T09:05:44;22.60;53.50
28959;DHT22;16066;0.000;0.000;2022-07-11T09:08:10;22.70;53.80
28959;DHT22;16066;0.000;0.000;2022-07-11T09:10:38;22.70;53.90
28959;DHT22;16066;0.000;0.000;2022-07-11T09:13:09;22.70;53.50
28959;DHT22;16066;0.000;0.000;2022-07-11T09:15:42;22.70;54.00
28959;DHT22;16066;0.000;0.000;2022-07-11T09:18:37;22.70;53.40
28959;DHT22;16066;0.000;0.000;2022-07-11T09:21:05;22.60;53.80
28959;DHT22;16066;0.000;0.000;2022-07-11T09:23:50;22.70;55.00
28959;DHT22;16066;0.000;0.000;2022-07-11T09:26:41;22.60;53.70
28959;DHT22;16066;0.000;0.000;2022-07-11T09:29:09;22.60;53.70
28959;DHT22;16066;0.000;0.000;2022-07-11T09:31:36;22.50;54.30
28959;DHT22;16066;0.000;0.000;2022-07-11T09:34:04;22.60;54.40
28959;DHT22;16066;0.000;0.000;2022-07-11T09:36:39;22.40;54.40
28959;DHT22;16066;0.000;0.000;2022-07-11T09:39:06;22.30;54.60
28959;DHT22;16066;0.000;0.000;2022-07-11T09:41:33;22.30;54.70
28959;DHT22;16066;0.000;0.000;2022-07-11T09:46:45;22.40;54.90
28959;DHT22;16066;0.000;0.000;2022-07-11T09:49:12;22.50;55.60
28959;DHT22;16066;0.000;0.000;2022-07-11T09:51:38;22.50;55.00
28959;DHT22;16066;0.000;0.000;2022-07-11T09:54:05;22.40;55.30
28959;DHT22;16066;0.000;0.000;2022-07-11T09:56:37;22.40;55.40
28959;DHT22;16066;0.000;0.000;2022-07-11T09:59:05;22.30;55.50
28959;DHT22;16066;0.000;0.000;2022-07-11T10:01:31;22.30;55.50
28959;DHT22;16066;0.000;0.000;2022-07-11T10:03:58;22.30;55.50
28959;DHT22;16066;0.000;0.000;2022-07-11T10:06:24;22.30;55.60
28959;DHT22;16066;0.000;0.000;2022-07-11T10:08:51;22.30;55.50
28959;DHT22;16066;0.000;0.000;2022-07-11T10:11:18;22.20;56.00
28959;DHT22;16066;0.000;0.000;2022-07-11T10:13:44;22.30;55.50
28959;DHT22;16066;0.000;0.000;2022-07-11T10:16:38;22.30;55.40
28959;DHT22;16066;0.000;0.000;2022-07-11T10:22:18;22.30;55.10
28959;DHT22;16066;0.000;0.000;2022-07-11T10:28:03;22.30;56.00
28959;DHT22;16066;0.000;0.000;2022-07-11T10:30:50;22.40;55.80
28959;DHT22;16066;0.000;0.000;2022-07-11T10:33:17;22.40;55.40
28959;DHT22;16066;0.000;0.000;2022-07-11T10:35:45;22.40;55.20
28959;DHT22;16066;0.000;0.000;2022-07-11T10:38:11;22.50;55.20
28959;DHT22;16066;0.000;0.000;2022-07-11T10:40:44;22.50;54.90
28959;DHT22;16066;0.000;0.000;2022-07-11T10:46:02;22.40;55.10
28959;DHT22;16066;0.000;0.000;2022-07-11T10:48:32;22.50;55.70
28959;DHT22;16066;0.000;0.000;2022-07-11T10:51:11;22.50;55.40
28959;DHT22;16066;0.000;0.000;2022-07-11T10:53:50;22.40;55.40
28959;DHT22;16066;0.000;0.000;2022-07-11T10:59:19;22.40;55.10
28959;DHT22;16066;0.000;0.000;2022-07-11T11:02:04;22.50;54.60
28959;DHT22;16066;0.000;0.000;2022-07-11T11:04:44;22.50;54.50
28959;DHT22;16066;0.000;0.000;2022-07-11T11:07:30;22.50;54.40
28959;DHT22;16066;0.000;0.000;2022-07-11T11:09:56;22.50;54.50
28959;DHT22;16066;0.000;0.000;2022-07-11T11:23:34;22.40;55.00
28959;DHT22;16066;0.000;0.000;2022-07-11T11:28:33;22.30;55.50
28959;DHT22;16066;0.000;0.000;2022-07-11T11:31:02;22.30;55.50
28959;DHT22;16066;0.000;0.000;2022-07-11T11:33:30;22.30;55.30
28959;DHT22;16066;0.000;0.000;2022-07-11T11:36:02;22.40;55.20
28959;DHT22;16066;0.000;0.000;2022-07-11T11:38:29;22.40;55.00
28959;DHT22;16066;0.000;0.000;2022-07-11T11:40:58;22.50;54.70
28959;DHT22;16066;0.000;0.000;2022-07-11T11:43:24;22.50;54.70
28959;DHT22;16066;0.000;0.000;2022-07-11T11:45:51;22.50;54.70
28959;DHT22;16066;0.000;0.000;2022-07-11T11:51:27;22.50;54.60
28959;DHT22;16066;0.000;0.000;2022-07-11T11:53:55;22.50;54.70
28959;DHT22;16066;0.000;0.000;2022-07-11T11:59:04;22.60;54.90
28959;DHT22;16066;0.000;0.000;2022-07-11T12:01:32;22.60;54.70
28959;DHT22;16066;0.000;0.000;2022-07-11T12:04:10;22.60;54.60
28959;DHT22;16066;0.000;0.000;2022-07-11T12:06:40;22.70;54.60
28959;DHT22;16066;0.000;0.000;2022-07-11T12:09:11;22.70;54.60
28959;DHT22;16066;0.000;0.000;2022-07-11T12:11:42;22.80;54.50
28959;DHT22;16066;0.000;0.000;2022-07-11T12:14:10;22.80;54.30
28959;DHT22;16066;0.000;0.000;2022-07-11T12:16:41;22.80;54.10
28959;DHT22;16066;0.000;0.000;2022-07-11T12:19:19;22.80;53.90
28959;DHT22;16066;0.000;0.000;2022-07-11T12:21:48;22.90;53.70
28959;DHT22;16066;0.000;0.000;2022-07-11T12:24:24;22.80;53.50
28959;DHT22;16066;0.000;0.000;2022-07-11T12:29:27;22.90;53.90
28959;DHT22;16066;0.000;0.000;2022-07-11T12:37:04;23.00;54.70
28959;DHT22;16066;0.000;0.000;2022-07-11T12:39:32;23.00;55.50
28959;DHT22;16066;0.000;0.000;2022-07-11T12:41:59;23.10;55.30
28959;DHT22;16066;0.000;0.000;2022-07-11T12:44:30;23.10;54.70
28959;DHT22;16066;0.000;0.000;2022-07-11T12:47:16;23.20;54.60
28959;DHT22;16066;0.000;0.000;2022-07-11T12:49:48;23.30;54.40
28959;DHT22;16066;0.000;0.000;2022-07-11T12:52:14;23.40;54.10
28959;DHT22;16066;0.000;0.000;2022-07-11T12:54:41;23.50;53.90
28959;DHT22;16066;0.000;0.000;2022-07-11T12:57:09;23.60;53.80
28959;DHT22;16066;0.000;0.000;2022-07-11T12:59:39;23.60;53.30
28959;DHT22;16066;0.000;0.000;2022-07-11T13:02:05;23.70;53.40
28959;DHT22;16066;0.000;0.000;2022-07-11T13:04:50;23.70;53.30
28959;DHT22;16066;0.000;0.000;2022-07-11T13:07:34;23.70;53.30
28959;DHT22;16066;0.000;0.000;2022-07-11T13:10:20;23.80;53.40
28959;DHT22;16066;0.000;0.000;2022-07-11T13:12:48;23.80;53.40
28959;DHT22;16066;0.000;0.000;2022-07-11T13:15:15;23.80;53.30
28959;DHT22;16066;0.000;0.000;2022-07-11T13:17:49;23.80;53.00
28959;DHT22;16066;0.000;0.000;2022-07-11T13:20:18;23.90;53.30
28959;DHT22;16066;0.000;0.000;2022-07-11T13:22:46;24.00;52.90
28959;DHT22;16066;0.000;0.000;2022-07-11T13:25:13;24.00;53.10
28959;DHT22;16066;0.000;0.000;2022-07-11T13:27:40;24.00;52.90
28959;DHT22;16066;0.000;0.000;2022-07-11T13:30:07;24.00;52.80
28959;DHT22;16066;0.000;0.000;2022-07-11T13:32:38;24.10;52.70
28959;DHT22;16066;0.000;0.000;2022-07-11T13:35:04;24.10;52.40
28959;DHT22;16066;0.000;0.000;2022-07-11T13:37:30;23.90;52.20
28959;DHT22;16066;0.000;0.000;2022-07-11T13:39:55;23.90;52.40
28959;DHT22;16066;0.000;0.000;2022-07-11T13:42:21;23.80;52.60
28959;DHT22;16066;0.000;0.000;2022-07-11T13:44:46;23.70;52.80
28959;DHT22;16066;0.000;0.000;2022-07-11T13:47:12;23.60;52.80
28959;DHT22;16066;0.000;0.000;2022-07-11T13:49:39;23.50;52.70
28959;DHT22;16066;0.000;0.000;2022-07-11T13:52:04;23.40;52.90
28959;DHT22;16066;0.000;0.000;2022-07-11T13:54:30;23.40;53.10
28959;DHT22;16066;0.000;0.000;2022-07-11T13:56:56;23.40;53.10
28959;DHT22;16066;0.000;0.000;2022-07-11T13:59:21;23.40;53.10
28959;DHT22;16066;0.000;0.000;2022-07-11T14:01:47;23.30;53.20
28959;DHT22;16066;0.000;0.000;2022-07-11T14:04:12;23.30;53.60
28959;DHT22;16066;0.000;0.000;2022-07-11T14:06:38;23.20;53.90
28959;DHT22;16066;0.000;0.000;2022-07-11T14:09:03;23.20;53.90
28959;DHT22;16066;0.000;0.000;2022-07-11T14:11:29;23.30;54.10
28959;DHT22;16066;0.000;0.000;2022-07-11T14:13:56;23.20;54.20
28959;DHT22;16066;0.000;0.000;2022-07-11T14:16:21;23.30;54.10
28959;DHT22;16066;0.000;0.000;2022-07-11T14:18:47;23.30;54.10
28959;DHT22;16066;0.000;0.000;2022-07-11T14:21:13;23.20;54.30
28959;DHT22;16066;0.000;0.000;2022-07-11T14:23:38;23.30;54.10
28959;DHT22;16066;0.000;0.000;2022-07-11T14:26:04;23.30;54.10
28959;DHT22;16066;0.000;0.000;2022-07-11T14:28:32;23.30;54.10
28959;DHT22;16066;0.000;0.000;2022-07-11T14:30:58;23.30;54.20
28959;DHT22;16066;0.000;0.000;2022-07-11T14:33:24;23.30;54.10
28959;DHT22;16066;0.000;0.000;2022-07-11T14:35:50;23.30;54.10
28959;DHT22;16066;0.000;0.000;2022-07-11T14:38:15;23.30;54.40
28959;DHT22;16066;0.000;0.000;2022-07-11T14:40:41;23.40;54.20
28959;DHT22;16066;0.000;0.000;2022-07-11T14:43:06;23.40;53.90
28959;DHT22;16066;0.000;0.000;2022-07-11T14:48:00;23.40;53.90
28959;DHT22;16066;0.000;0.000;2022-07-11T14:50:25;23.40;54.20
28959;DHT22;16066;0.000;0.000;2022-07-11T14:52:51;23.30;54.20
28959;DHT22;16066;0.000;0.000;2022-07-11T14:55:17;23.40;54.50
28959;DHT22;16066;0.000;0.000;2022-07-11T14:57:42;23.50;54.30
28959;DHT22;16066;0.000;0.000;2022-07-11T15:00:08;23.40;54.20
28959;DHT22;16066;0.000;0.000;2022-07-11T15:02:34;23.50;53.90
28959;DHT22;16066;0.000;0.000;2022-07-11T15:05:18;23.50;53.90
28959;DHT22;16066;0.000;0.000;2022-07-11T15:07:43;23.50;53.60
28959;DHT22;16066;0.000;0.000;2022-07-11T15:10:44;23.50;53.70
28959;DHT22;16066;0.000;0.000;2022-07-11T15:13:28;23.50;53.90
28959;DHT22;16066;0.000;0.000;2022-07-11T15:15:54;23.60;53.80
28959;DHT22;16066;0.000;0.000;2022-07-11T15:18:20;23.50;53.90
28959;DHT22;16066;0.000;0.000;2022-07-11T15:20:46;23.50;53.90
28959;DHT22;16066;0.000;0.000;2022-07-11T15:23:12;24.20;52.90
28959;DHT22;16066;0.000;0.000;2022-07-11T15:25:38;25.30;50.30
28959;DHT22;16066;0.000;0.000;2022-07-11T15:28:04;26.30;48.30
28959;DHT22;16066;0.000;0.000;2022-07-11T15:30:29;27.10;46.40
28959;DHT22;16066;0.000;0.000;2022-07-11T15:32:55;27.70;45.10
28959;DHT22;16066;0.000;0.000;2022-07-11T15:35:20;27.70;44.80
28959;DHT22;16066;0.000;0.000;2022-07-11T15:37:46;27.40;45.60
28959;DHT22;16066;0.000;0.000;2022-07-11T15:40:11;26.90;46.50
28959;DHT22;16066;0.000;0.000;2022-07-11T15:42:37;26.60;47.50
28959;DHT22;16066;0.000;0.000;2022-07-11T15:45:03;26.30;47.90
28959;DHT22;16066;0.000;0.000;2022-07-11T15:47:29;25.90;48.70
28959;DHT22;16066;0.000;0.000;2022-07-11T15:49:55;25.60;49.60
28959;DHT22;16066;0.000;0.000;2022-07-11T15:52:20;25.40;49.90
28959;DHT22;16066;0.000;0.000;2022-07-11T15:54:46;25.20;50.60
28959;DHT22;16066;0.000;0.000;2022-07-11T15:57:11;25.20;50.60
28959;DHT22;16066;0.000;0.000;2022-07-11T15:59:37;25.10;50.70
28959;DHT22;16066;0.000;0.000;2022-07-11T16:02:03;25.00;50.70
28959;DHT22;16066;0.000;0.000;2022-07-11T16:04:28;25.00;50.50
28959;DHT22;16066;0.000;0.000;2022-07-11T16:06:54;25.00;50.70
28959;DHT22;16066;0.000;0.000;2022-07-11T16:09:19;24.90;50.80
28959;DHT22;16066;0.000;0.000;2022-07-11T16:11:46;24.80;50.70
28959;DHT22;16066;0.000;0.000;2022-07-11T16:14:11;24.90;50.80
28959;DHT22;16066;0.000;0.000;2022-07-11T16:16:37;24.80;50.70
28959;DHT22;16066;0.000;0.000;2022-07-11T16:19:02;24.90;50.80
28959;DHT22;16066;0.000;0.000;2022-07-11T16:21:28;24.80;50.60
28959;DHT22;16066;0.000;0.000;2022-07-11T16:23:55;24.80;50.80
28959;DHT22;16066;0.000;0.000;2022-07-11T16:26:21;24.80;50.80
28959;DHT22;16066;0.000;0.000;2022-07-11T16:28:47;24.70;50.90
28959;DHT22;16066;0.000;0.000;2022-07-11T16:31:12;24.60;51.00
28959;DHT22;16066;0.000;0.000;2022-07-11T16:33:39;24.70;51.20